Time;durP1;ratioP1;P1;durP2;ratioP2;P2;SDS_P1;SDS_P2;PMS_P1;PMS_P2;Temp;Humidity;BMP_temperature;BMP_pressure;BME280_temperature;BME280_humidity;BME280_pressure;Samples;Min_cycle;Max_cycle;Signal;HPM_P1;HPM_P2
2023/12/23 00:00:06;;;;;;;24.20;17.20;;;;;;;4.81;100.00;98171.38;105042;1292;599973;-76
2023/12/23 00:02:33;;;;;;;22.10;15.70;;;;;;;4.76;100.00;98162.89;108474;1266;59854;-76
2023/12/23 00:05:01;;;;;;;28.80;16.20;;;;;;;4.76;100.00;98150.82;105018;1266;59324;-77
2023/12/23 00:07:29;;;;;;;25.20;13.90;;;;;;;4.73;100.00;98151.86;104920;1267;72327;-75
2023/12/23 00:09:57;;;;;;;19.40;13.20;;;;;;;4.71;100.00;98155.48;105026;1267;64526;-75
2023/12/23 00:12:24;;;;;;;19.70;14.80;;;;;;;4.68;100.00;98164.40;105090;1267;71450;-76
2023/12/23 00:14:52;;;;;;;22.50;15.20;;;;;;;4.64;100.00;98168.67;104890;1264;269314;-76
2023/12/23 00:17:19;;;;;;;20.30;13.40;;;;;;;4.60;100.00;98167.05;104948;1269;59272;-75
2023/12/23 00:19:47;;;;;;;19.00;13.10;;;;;;;4.56;100.00;98160.42;105093;1270;71498;-78
2023/12/23 00:22:15;;;;;;;21.40;13.40;;;;;;;4.53;100.00;98161.36;105013;1267;63843;-78
2023/12/23 00:24:42;;;;;;;16.80;12.70;;;;;;;4.49;100.00;98168.95;104897;1269;72747;-77
2023/12/23 00:27:10;;;;;;;17.50;12.30;;;;;;;4.44;100.00;98171.04;104977;1264;60124;-76
2023/12/23 00:29:37;;;;;;;20.60;12.20;;;;;;;4.39;100.00;98171.55;105054;1264;60178;-76
2023/12/23 00:32:06;;;;;;;19.30;12.60;;;;;;;4.32;100.00;98164.25;105573;1262;72408;-76
2023/12/23 00:34:34;;;;;;;18.40;11.30;;;;;;;4.28;100.00;98163.23;105405;1256;62418;-76
2023/12/23 00:37:02;;;;;;;16.50;12.70;;;;;;;4.21;100.00;98161.15;105340;1263;72702;-76
2023/12/23 00:39:30;;;;;;;15.50;11.10;;;;;;;4.13;100.00;98160.81;105505;1255;59676;-77
2023/12/23 00:41:57;;;;;;;16.60;9.80;;;;;;;4.06;100.00;98158.22;105430;1262;59650;-76
2023/12/23 00:44:24;;;;;;;13.10;9.80;;;;;;;4.00;100.00;98158.83;105321;1258;72568;-76
2023/12/23 00:46:52;;;;;;;13.70;9.80;;;;;;;3.97;100.00;98156.31;105654;1257;63107;-77
2023/12/23 00:49:19;;;;;;;18.10;10.30;;;;;;;3.96;100.00;98163.45;105539;1260;72641;-77
2023/12/23 00:51:47;;;;;;;15.00;10.20;;;;;;;3.95;100.00;98163.39;105560;1255;61091;-76
2023/12/23 00:54:17;;;;;;;13.30;9.30;;;;;;;3.93;100.00;98163.87;105483;1261;59574;-78
2023/12/23 00:56:44;;;;;;;10.80;8.00;;;;;;;3.92;100.00;98159.77;105659;1255;73004;-76
2023/12/23 00:59:12;;;;;;;15.70;9.10;;;;;;;3.88;100.00;98158.31;105507;1257;62562;-77
2023/12/23 01:01:43;;;;;;;15.60;9.30;;;;;;;3.86;100.00;98160.02;105413;1257;71160;-78
2023/12/23 01:04:10;;;;;;;13.20;8.30;;;;;;;3.84;100.00;98154.83;105490;1257;59876;-79
2023/12/23 01:06:38;;;;;;;14.30;8.90;;;;;;;3.84;100.00;98155.34;105737;1259;59720;-75
2023/12/23 01:09:06;;;;;;;14.10;8.80;;;;;;;3.84;100.00;98154.80;105960;1254;71914;-76
2023/12/23 01:11:33;;;;;;;12.50;9.00;;;;;;;3.84;100.00;98157.56;105774;1254;62403;-75
2023/12/23 01:14:01;;;;;;;15.10;10.80;;;;;;;3.84;100.00;98151.52;105860;1254;70625;-76
2023/12/23 01:16:29;;;;;;;25.40;15.50;;;;;;;3.82;100.00;98149.59;105967;1258;59836;-74
2023/12/23 01:18:57;;;;;;;30.60;17.90;;;;;;;3.80;100.00;98154.80;105782;1258;59650;-77
2023/12/23 01:21:25;;;;;;;27.60;18.60;;;;;;;3.78;100.00;98152.98;105778;1256;71295;-77
2023/12/23 01:23:53;;;;;;;31.10;19.40;;;;;;;3.78;100.00;98153.92;105774;1256;63654;-76
2023/12/23 01:26:21;;;;;;;33.20;19.20;;;;;;;3.76;100.00;98155.25;105777;1254;71544;-76
2023/12/23 01:28:49;;;;;;;28.10;19.50;;;;;;;3.74;100.00;98160.17;106115;1256;59686;-75
2023/12/23 01:31:18;;;;;;;34.80;18.40;;;;;;;3.73;100.00;98163.70;105887;1259;59682;-75
2023/12/23 01:33:45;;;;;;;27.90;16.90;;;;;;;3.71;100.00;98163.83;106124;1258;72437;-75
2023/12/23 01:36:15;;;;;;;27.40;17.40;;;;;;;3.68;100.00;98156.48;105787;1259;63073;-78
2023/12/23 01:38:43;;;;;;;28.00;16.80;;;;;;;3.67;100.00;98161.95;105927;1257;75075;-75
2023/12/23 01:41:10;;;;;;;27.60;18.70;;;;;;;3.65;100.00;98165.37;106659;1254;60086;-75
2023/12/23 01:43:38;;;;;;;31.80;20.00;;;;;;;3.62;100.00;98165.56;108368;1253;59062;-76
2023/12/23 01:46:05;;;;;;;30.50;17.90;;;;;;;3.61;100.00;98173.42;108537;1252;71763;-75
2023/12/23 01:48:36;;;;;;;28.10;15.80;;;;;;;3.58;100.00;98172.03;108834;1254;64369;-75
2023/12/23 01:51:03;;;;;;;26.30;17.30;;;;;;;3.57;100.00;98169.23;109234;1253;71436;-76
2023/12/23 01:53:31;;;;;;;21.70;14.80;;;;;;;3.55;100.00;98169.52;107150;1253;59854;-75
2023/12/23 01:55:59;;;;;;;20.10;14.50;;;;;;;3.53;100.00;98165.85;105794;1258;60971;-78
2023/12/23 01:58:27;;;;;;;19.10;15.40;;;;;;;3.52;100.00;98168.34;105758;1256;71901;-77
2023/12/23 02:00:55;;;;;;;25.70;17.30;;;;;;;3.51;100.00;98170.64;105704;1259;63511;-75
2023/12/23 02:03:23;;;;;;;19.00;15.20;;;;;;;3.49;100.00;98167.83;105664;1256;72667;-75
2023/12/23 02:05:51;;;;;;;23.40;15.30;;;;;;;3.48;100.00;98166.55;105700;1259;59737;-75
2023/12/23 02:08:19;;;;;;;26.50;17.00;;;;;;;3.46;100.00;98171.52;105760;1256;59740;-76
2023/12/23 02:10:46;;;;;;;23.50;15.40;;;;;;;3.45;100.00;98176.06;105832;1256;74563;-75
2023/12/23 02:13:25;;;;;;;30.90;19.70;;;;;;;3.43;100.00;98172.77;105693;1251;65225;-78
2023/12/23 02:15:52;;;;;;;33.10;18.10;;;;;;;3.42;100.00;98175.80;105782;1257;73500;-76
2023/12/23 02:18:21;;;;;;;33.00;20.30;;;;;;;3.40;100.00;98181.45;105925;1256;59657;-77
2023/12/23 02:20:53;;;;;;;33.70;22.40;;;;;;;3.38;100.00;98185.56;105974;1251;60195;-76
2023/12/23 02:23:20;;;;;;;37.70;25.50;;;;;;;3.36;100.00;98184.30;105874;1257;71798;-76
2023/12/23 02:25:53;;;;;;;57.50;32.40;;;;;;;3.36;100.00;98186.59;105732;1254;63250;-75
2023/12/23 02:28:21;;;;;;;61.70;39.00;;;;;;;3.34;100.00;98189.67;105877;1254;71432;-75
2023/12/23 02:30:48;;;;;;;47.80;30.80;;;;;;;3.31;100.00;98188.27;105649;1253;60358;-75
2023/12/23 02:33:17;;;;;;;46.20;29.80;;;;;;;3.29;100.00;98188.27;105835;1254;59739;-77
2023/12/23 02:35:45;;;;;;;38.80;25.30;;;;;;;3.26;100.00;98184.66;105726;1251;71822;-76
2023/12/23 02:38:12;;;;;;;34.10;21.60;;;;;;;3.23;100.00;98182.23;105709;1259;64401;-76
2023/12/23 02:40:40;;;;;;;33.30;20.00;;;;;;;3.21;100.00;98177.05;105647;1255;71599;-76
2023/12/23 02:43:09;;;;;;;24.10;17.60;;;;;;;3.18;100.00;98174.71;105761;1251;61232;-76
2023/12/23 02:45:36;;;;;;;28.60;18.30;;;;;;;3.15;100.00;98174.40;105769;1256;59538;-75
2023/12/23 02:48:06;;;;;;;24.50;17.70;;;;;;;3.12;100.00;98173.35;105795;1256;73053;-76
2023/12/23 02:50:34;;;;;;;29.00;17.70;;;;;;;3.09;100.00;98173.36;105741;1252;62683;-76
2023/12/23 02:53:02;;;;;;;24.80;16.90;;;;;;;3.06;100.00;98174.41;105771;1256;72963;-75
2023/12/23 02:55:31;;;;;;;21.90;15.50;;;;;;;3.05;100.00;98175.91;105776;1251;59800;-76
2023/12/23 02:58:01;;;;;;;21.80;15.60;;;;;;;3.03;100.00;98177.95;105850;1256;59630;-77
2023/12/23 03:00:29;;;;;;;24.70;16.20;;;;;;;3.00;100.00;98182.83;105829;1256;71811;-77
2023/12/23 03:02:57;;;;;;;21.50;15.80;;;;;;;2.97;100.00;98188.22;105891;1266;63500;-76
2023/12/23 03:05:24;;;;;;;28.90;16.20;;;;;;;2.94;100.00;98193.80;105761;1257;70753;-75
2023/12/23 03:07:53;;;;;;;24.20;15.30;;;;;;;2.90;100.00;98200.04;105960;1255;59846;-76
2023/12/23 03:10:21;;;;;;;23.10;15.60;;;;;;;2.88;100.00;98204.52;106624;1256;59701;-75
2023/12/23 03:12:49;;;;;;;22.30;15.20;;;;;;;2.84;100.00;98204.58;106388;1251;71738;-76
2023/12/23 03:15:18;;;;;;;24.30;15.10;;;;;;;2.81;100.00;98195.47;105819;1257;63482;-74
2023/12/23 03:17:45;;;;;;;25.40;15.60;;;;;;;2.78;100.00;98189.50;105666;1256;71395;-75
2023/12/23 03:20:13;;;;;;;25.10;14.50;;;;;;;2.76;100.00;98188.24;105909;1256;60804;-75
2023/12/23 03:22:41;;;;;;;24.90;15.40;;;;;;;2.75;100.00;98192.99;105977;1254;59993;-77
2023/12/23 03:25:09;;;;;;;29.00;17.10;;;;;;;2.73;100.00;98194.66;105667;1251;73092;-75
2023/12/23 03:27:36;;;;;;;25.60;15.40;;;;;;;2.70;100.00;98195.86;105775;1257;63935;-76
2023/12/23 03:30:04;;;;;;;30.40;17.30;;;;;;;2.67;100.00;98202.25;105683;1254;71501;-77
2023/12/23 03:32:32;;;;;;;30.50;16.50;;;;;;;2.66;100.00;98210.45;105911;1256;60802;-76
2023/12/23 03:34:59;;;;;;;36.80;18.70;;;;;;;2.64;100.00;98217.85;105698;1257;59621;-77
2023/12/23 03:37:27;;;;;;;29.20;19.20;;;;;;;2.62;100.00;98224.17;105750;1253;73048;-77
2023/12/23 03:39:54;;;;;;;34.30;19.60;;;;;;;2.60;100.00;98226.73;105708;1257;64127;-75
2023/12/23 03:42:22;;;;;;;34.50;20.10;;;;;;;2.57;100.00;98226.79;105736;1254;73111;-79
2023/12/23 03:44:49;;;;;;;32.80;19.60;;;;;;;2.55;100.00;98223.64;105707;1254;60189;-78
2023/12/23 03:47:17;;;;;;;34.60;18.70;;;;;;;2.52;100.00;98227.94;105778;1256;59647;-76
2023/12/23 03:49:45;;;;;;;33.20;19.40;;;;;;;2.51;100.00;98225.76;105794;1254;72880;-75
2023/12/23 03:52:13;;;;;;;29.90;19.10;;;;;;;2.50;100.00;98227.73;105705;1254;62891;-75
2023/12/23 03:54:40;;;;;;;32.30;19.50;;;;;;;2.49;100.00;98224.17;105628;1255;73062;-78
2023/12/23 03:57:07;;;;;;;40.90;20.40;;;;;;;2.48;100.00;98226.98;105950;1256;61529;-75
2023/12/23 03:59:36;;;;;;;40.00;20.30;;;;;;;2.47;100.00;98220.88;105944;1255;59585;-77
2023/12/23 04:02:04;;;;;;;41.70;22.50;;;;;;;2.44;100.00;98220.33;105641;1254;71484;-76
2023/12/23 04:04:33;;;;;;;40.60;21.30;;;;;;;2.42;100.00;98215.30;105752;1258;64315;-76
2023/12/23 04:07:00;;;;;;;34.80;20.10;;;;;;;2.40;100.00;98214.61;105773;1257;72828;-77
2023/12/23 04:09:27;;;;;;;34.70;19.30;;;;;;;2.37;100.00;98216.00;105682;1254;60555;-76
2023/12/23 04:11:55;;;;;;;35.00;20.00;;;;;;;2.34;100.00;98223.42;105682;1254;60444;-77
2023/12/23 04:14:23;;;;;;;38.10;18.70;;;;;;;2.31;100.00;98219.65;105731;1252;73633;-77
2023/12/23 04:16:50;;;;;;;37.80;18.40;;;;;;;2.27;100.00;98219.86;105808;1254;62799;-76
2023/12/23 04:19:18;;;;;;;30.30;18.70;;;;;;;2.24;100.00;98232.11;105683;1257;71586;-76
2023/12/23 04:21:46;;;;;;;28.10;17.80;;;;;;;2.21;100.00;98235.48;105673;1253;60896;-76
2023/12/23 04:24:13;;;;;;;31.60;18.30;;;;;;;2.18;100.00;98237.05;105756;1251;60538;-75
2023/12/23 04:26:41;;;;;;;25.00;16.80;;;;;;;2.15;100.00;98236.38;105648;1259;72603;-75
2023/12/23 04:29:09;;;;;;;31.40;16.60;;;;;;;2.13;100.00;98234.09;105845;1254;62609;-76
2023/12/23 04:31:37;;;;;;;32.00;18.90;;;;;;;2.12;100.00;98232.65;105760;1256;73307;-77
2023/12/23 04:34:05;;;;;;;36.20;17.80;;;;;;;2.10;100.00;98231.86;105900;1251;62073;-77
2023/12/23 04:36:32;;;;;;;30.40;16.50;;;;;;;2.08;100.00;98234.74;105745;1256;60444;-75
2023/12/23 04:39:04;;;;;;;25.60;15.00;;;;;;;2.04;100.00;98226.53;105758;1252;75775;-77
2023/12/23 04:41:32;;;;;;;26.70;15.70;;;;;;;2.00;100.00;98225.58;105873;1253;64038;-78
2023/12/23 04:44:02;;;;;;;25.80;15.80;;;;;;;1.96;100.00;98224.83;105839;1254;73592;-78
2023/12/23 04:46:30;;;;;;;29.20;17.70;;;;;;;1.92;100.00;98229.05;105969;1257;61189;-75
2023/12/23 04:48:59;;;;;;;28.50;16.40;;;;;;;1.88;100.00;98230.51;105962;1266;60373;-77
2023/12/23 04:51:27;;;;;;;28.20;15.80;;;;;;;1.83;100.00;98236.80;105703;1260;73904;-77
2023/12/23 04:53:54;;;;;;;29.10;15.90;;;;;;;1.78;100.00;98233.86;105826;1257;62834;-77
2023/12/23 04:56:22;;;;;;;29.90;15.50;;;;;;;1.75;100.00;98237.66;105790;1255;71369;-76
2023/12/23 04:58:50;;;;;;;25.10;14.40;;;;;;;1.72;100.00;98238.02;105787;1259;60546;-77
2023/12/23 05:01:18;;;;;;;28.40;16.10;;;;;;;1.69;100.00;98234.42;105703;1259;60412;-77
2023/12/23 05:03:46;;;;;;;27.00;15.30;;;;;;;1.66;100.00;98234.09;105710;1257;74527;-77
2023/12/23 05:06:13;;;;;;;27.40;16.30;;;;;;;1.63;100.00;98233.40;105742;1257;63595;-76
2023/12/23 05:08:43;;;;;;;29.80;16.60;;;;;;;1.61;100.00;98234.94;105767;1257;71868;-76
2023/12/23 05:11:10;;;;;;;30.50;17.30;;;;;;;1.60;100.00;98229.83;105910;1257;60524;-78
2023/12/23 05:13:38;;;;;;;37.60;18.70;;;;;;;1.59;100.00;98227.83;105870;1253;60383;-75
2023/12/23 05:16:06;;;;;;;43.70;20.10;;;;;;;1.59;100.00;98229.38;105819;1254;71451;-76
2023/12/23 05:18:33;;;;;;;36.20;17.00;;;;;;;1.57;100.00;98231.35;105782;1254;63633;-75
2023/12/23 05:21:01;;;;;;;36.70;18.80;;;;;;;1.56;100.00;98236.30;105981;1260;72718;-75
2023/12/23 05:23:29;;;;;;;36.70;19.00;;;;;;;1.55;100.00;98236.88;105866;1252;60433;-77
2023/12/23 05:25:57;;;;;;;41.00;23.00;;;;;;;1.53;100.00;98237.67;105775;1256;60338;-76
2023/12/23 05:28:25;;;;;;;53.60;24.80;;;;;;;1.51;100.00;98237.61;105840;1257;73775;-75
2023/12/23 05:30:52;;;;;;;39.80;23.70;;;;;;;1.50;100.00;98235.61;105800;1252;62080;-74
2023/12/23 05:33:24;;;;;;;46.20;22.10;;;;;;;1.49;100.00;98239.15;106287;1251;70077;-75
2023/12/23 05:35:52;;;;;;;45.40;20.70;;;;;;;1.47;100.00;98242.70;105904;1251;60430;-78
2023/12/23 05:38:20;;;;;;;47.90;24.60;;;;;;;1.45;100.00;98243.13;105973;1251;60460;-75
2023/12/23 05:40:48;;;;;;;60.50;32.00;;;;;;;1.44;100.00;98237.32;106947;1251;71498;-74
2023/12/23 05:43:15;;;;;;;50.80;24.80;;;;;;;1.43;100.00;98238.77;107632;1251;62981;-74
2023/12/23 05:45:43;;;;;;;42.00;22.90;;;;;;;1.43;100.00;98240.46;107761;1256;71599;-76
2023/12/23 05:48:10;;;;;;;41.90;21.30;;;;;;;1.44;100.00;98244.76;107820;1251;60473;-75
2023/12/23 05:50:38;;;;;;;44.20;22.70;;;;;;;1.43;100.00;98244.10;109548;1251;58844;-76
2023/12/23 05:53:05;;;;;;;46.60;20.00;;;;;;;1.43;100.00;98246.55;107822;1256;73760;-76
2023/12/23 05:55:32;;;;;;;35.10;19.00;;;;;;;1.43;100.00;98249.65;105861;1257;63807;-77
2023/12/23 05:58:00;;;;;;;39.40;18.90;;;;;;;1.42;100.00;98252.08;105759;1256;72949;-78
2023/12/23 06:00:29;;;;;;;28.50;17.30;;;;;;;1.42;100.00;98255.02;105846;1251;61060;-76
2023/12/23 06:02:56;;;;;;;37.50;18.80;;;;;;;1.43;100.00;98255.67;105785;1251;60571;-77
2023/12/23 06:05:24;;;;;;;37.20;18.80;;;;;;;1.44;100.00;98255.27;105879;1257;73733;-77
2023/12/23 06:07:51;;;;;;;27.60;17.50;;;;;;;1.45;100.00;98255.03;105807;1257;63249;-76
2023/12/23 06:10:19;;;;;;;29.90;17.60;;;;;;;1.48;100.00;98254.33;105741;1259;71642;-76
2023/12/23 06:12:47;;;;;;;27.50;14.80;;;;;;;1.49;100.00;98251.14;105928;1253;61059;-77
2023/12/23 06:15:18;;;;;;;28.60;13.70;;;;;;;1.50;100.00;98247.80;105843;1256;60412;-76
2023/12/23 06:17:48;;;;;;;27.30;14.70;;;;;;;1.53;100.00;98248.19;105808;1252;72540;-78
2023/12/23 06:20:15;;;;;;;19.70;13.80;;;;;;;1.54;100.00;98247.41;105928;1254;62527;-78
2023/12/23 06:22:43;;;;;;;26.20;13.30;;;;;;;1.56;100.00;98250.90;105981;1257;71405;-75
2023/12/23 06:25:11;;;;;;;22.50;13.50;;;;;;;1.58;100.00;98252.30;106177;1256;60351;-77
2023/12/23 06:27:38;;;;;;;21.30;13.30;;;;;;;1.60;100.00;98259.25;105966;1252;61507;-78
2023/12/23 06:30:07;;;;;;;24.00;13.10;;;;;;;1.62;100.00;98265.52;105854;1257;73987;-78
2023/12/23 06:32:34;;;;;;;20.60;12.10;;;;;;;1.64;100.00;98263.70;105810;1253;64276;-77
2023/12/23 06:35:03;;;;;;;22.90;13.20;;;;;;;1.66;100.00;98269.25;105728;1256;71022;-77
2023/12/23 06:37:31;;;;;;;23.30;12.90;;;;;;;1.69;100.00;98266.99;105893;1256;60887;-77
2023/12/23 06:39:59;;;;;;;24.90;13.40;;;;;;;1.72;100.00;98266.45;105869;1252;60337;-77
2023/12/23 06:42:27;;;;;;;24.80;13.80;;;;;;;1.77;100.00;98266.34;105937;1256;73037;-78
2023/12/23 06:44:54;;;;;;;23.20;13.10;;;;;;;1.80;100.00;98268.36;105778;1256;63430;-76
2023/12/23 06:47:22;;;;;;;23.40;13.00;;;;;;;1.84;100.00;98263.83;105705;1256;72746;-78
2023/12/23 06:49:50;;;;;;;22.90;13.60;;;;;;;1.87;100.00;98258.64;105916;1257;60494;-76
2023/12/23 06:52:17;;;;;;;20.80;11.20;;;;;;;1.90;100.00;98254.63;105767;1257;60386;-78
2023/12/23 06:54:45;;;;;;;22.40;14.00;;;;;;;1.94;100.00;98249.57;105816;1256;73808;-76
2023/12/23 06:57:12;;;;;;;23.80;13.80;;;;;;;1.99;100.00;98251.19;105843;1257;64127;-77
2023/12/23 06:59:39;;;;;;;20.70;12.50;;;;;;;2.03;100.00;98261.98;105781;1255;75436;-79
2023/12/23 07:02:07;;;;;;;22.40;12.40;;;;;;;2.07;100.00;98266.71;105572;1257;61694;-78
2023/12/23 07:04:35;;;;;;;24.30;13.40;;;;;;;2.12;100.00;98276.38;105774;1257;60399;-78
2023/12/23 07:07:03;;;;;;;25.60;16.50;;;;;;;2.16;100.00;98280.25;105849;1257;73947;-76
2023/12/23 07:09:30;;;;;;;33.20;16.90;;;;;;;2.20;100.00;98288.64;106047;1256;63633;-76
2023/12/23 07:11:59;;;;;;;38.90;22.00;;;;;;;2.22;100.00;98295.91;106218;1256;71116;-78
2023/12/23 07:14:27;;;;;;;43.70;24.20;;;;;;;2.23;100.00;98297.41;105826;1252;60450;-77
2023/12/23 07:16:54;;;;;;;29.30;18.80;;;;;;;2.25;100.00;98297.23;105880;1256;60742;-76
2023/12/23 07:19:22;;;;;;;29.40;16.70;;;;;;;2.28;100.00;98295.70;105961;1257;73947;-77
2023/12/23 07:21:53;;;;;;;26.60;14.90;;;;;;;2.31;100.00;98297.39;105763;1257;62710;-78
2023/12/23 07:24:20;;;;;;;28.70;16.20;;;;;;;2.36;100.00;98301.76;105724;1257;70470;-77
2023/12/23 07:26:48;;;;;;;26.20;13.60;;;;;;;2.42;100.00;98298.29;105743;1255;60516;-77
2023/12/23 07:29:16;;;;;;;24.30;13.10;;;;;;;2.48;100.00;98291.84;105886;1256;60524;-77
2023/12/23 07:31:44;;;;;;;20.30;11.90;;;;;;;2.54;100.00;98289.59;105787;1252;72655;-78
2023/12/23 07:34:12;;;;;;;23.30;13.10;;;;;;;2.56;100.00;98294.10;105731;1256;62264;-78
2023/12/23 07:36:40;;;;;;;24.00;11.40;;;;;;;2.58;100.00;98297.27;105828;1257;72641;-77
2023/12/23 07:39:08;;;;;;;20.40;10.40;;;;;;;2.58;100.00;98297.27;105872;1256;60536;-77
2023/12/23 07:41:37;;;;;;;23.60;14.40;;;;;;;2.58;100.00;98298.48;105842;1260;60453;-78
2023/12/23 07:44:04;;;;;;;20.90;12.60;;;;;;;2.59;100.00;98301.96;105844;1258;74066;-79
2023/12/23 07:46:32;;;;;;;23.30;13.40;;;;;;;2.61;100.00;98303.27;105782;1257;63346;-77
2023/12/23 07:49:00;;;;;;;15.30;8.50;;;;;;;2.65;100.00;98303.89;105954;1257;72751;-78
2023/12/23 07:51:27;;;;;;;15.00;6.80;;;;;;;2.69;100.00;98306.55;105832;1251;60935;-75
2023/12/23 07:53:55;;;;;;;17.20;8.50;;;;;;;2.74;100.00;98304.81;105846;1251;60826;-77
2023/12/23 07:56:27;;;;;;;10.30;5.30;;;;;;;2.78;100.00;98308.35;105932;1257;72901;-78
2023/12/23 07:59:00;;;;;;;9.20;6.00;;;;;;;2.81;100.00;98306.42;105892;1256;62520;-76
2023/12/23 08:01:31;;;;;;;7.40;5.30;;;;;;;2.81;100.00;98309.35;105897;1257;72995;-76
2023/12/23 08:04:03;;;;;;;13.30;6.90;;;;;;;2.82;100.00;98314.98;105891;1251;61207;-75
2023/12/23 08:06:31;;;;;;;9.30;6.00;;;;;;;2.82;100.00;98315.49;105793;1254;60546;-77
2023/12/23 08:08:59;;;;;;;9.90;6.00;;;;;;;2.82;100.00;98315.70;105804;1256;73853;-78
2023/12/23 08:11:26;;;;;;;11.40;4.90;;;;;;;2.82;100.00;98315.17;105897;1254;62439;-77
2023/12/23 08:13:54;;;;;;;8.10;4.90;;;;;;;2.82;100.00;98314.31;105913;1257;72690;-77
2023/12/23 08:16:21;;;;;;;11.30;5.50;;;;;;;2.81;100.00;98314.92;105842;1260;60878;-77
2023/12/23 08:18:49;;;;;;;13.20;5.90;;;;;;;2.80;100.00;98313.21;105822;1256;60543;-77
2023/12/23 08:21:16;;;;;;;12.50;5.10;;;;;;;2.80;100.00;98313.09;106366;1251;73904;-76
2023/12/23 08:23:44;;;;;;;10.70;4.90;;;;;;;2.80;100.00;98305.45;106728;1252;63663;-75
2023/12/23 08:26:13;;;;;;;8.20;5.40;;;;;;;2.82;100.00;98307.40;106281;1256;72892;-79
2023/12/23 08:28:41;;;;;;;15.60;5.40;;;;;;;2.84;100.00;98310.53;106070;1257;60408;-78
2023/12/23 08:31:13;;;;;;;12.60;7.40;;;;;;;2.87;100.00;98310.53;106052;1257;60360;-77
2023/12/23 08:33:40;;;;;;;9.60;5.80;;;;;;;2.90;100.00;98305.86;106850;1251;74052;-76
2023/12/23 08:36:08;;;;;;;10.20;6.20;;;;;;;2.93;100.00;98304.44;109041;1251;62294;-76
2023/12/23 08:38:35;;;;;;;14.30;5.40;;;;;;;2.96;100.00;98299.80;107234;1254;71445;-80
2023/12/23 08:41:04;;;;;;;11.80;6.00;;;;;;;2.98;100.00;98296.18;106070;1256;60590;-76
2023/12/23 08:43:32;;;;;;;11.60;5.90;;;;;;;3.00;100.00;98298.47;106045;1256;60544;-77
2023/12/23 08:46:00;;;;;;;16.50;6.90;;;;;;;3.02;100.00;98297.63;106018;1258;73862;-75
2023/12/23 08:48:28;;;;;;;17.70;7.70;;;;;;;3.05;100.00;98302.23;105890;1256;62392;-78
2023/12/23 08:50:56;;;;;;;13.00;6.90;;;;;;;3.09;100.00;98305.96;105905;1251;70660;-77
2023/12/23 08:53:23;;;;;;;13.30;7.20;;;;;;;3.14;100.00;98304.60;105868;1254;61320;-77
2023/12/23 08:55:51;;;;;;;8.30;6.20;;;;;;;3.20;100.00;98304.57;105795;1257;60514;-78
2023/12/23 08:58:18;;;;;;;13.50;5.70;;;;;;;3.23;100.00;98304.48;105802;1257;72920;-77
2023/12/23 09:00:46;;;;;;;13.60;6.30;;;;;;;3.27;100.00;98306.63;105785;1257;63513;-76
2023/12/23 09:03:14;;;;;;;9.80;5.30;;;;;;;3.34;100.00;98301.74;105841;1256;73164;-77
2023/12/23 09:05:42;;;;;;;10.70;5.10;;;;;;;3.38;100.00;98303.52;105813;1256;60816;-76
2023/12/23 09:08:12;;;;;;;14.50;5.70;;;;;;;3.41;100.00;98307.29;105861;1251;60751;-79
2023/12/23 09:10:39;;;;;;;15.30;5.50;;;;;;;3.46;100.00;98304.02;105824;1256;73909;-76
2023/12/23 09:13:07;;;;;;;9.30;5.20;;;;;;;3.49;100.00;98297.77;105708;1257;63743;-78
2023/12/23 09:15:34;;;;;;;7.80;4.40;;;;;;;3.52;100.00;98293.19;105792;1257;71491;-77
2023/12/23 09:18:03;;;;;;;11.00;5.60;;;;;;;3.55;100.00;98294.29;105768;1255;60421;-79
2023/12/23 09:20:33;;;;;;;11.00;4.90;;;;;;;3.54;100.00;98296.54;105753;1256;61190;-78
2023/12/23 09:23:01;;;;;;;7.40;3.90;;;;;;;3.56;100.00;98297.95;105748;1256;76676;-79
2023/12/23 09:25:30;;;;;;;8.70;4.30;;;;;;;3.58;100.00;98296.60;105890;1259;63768;-77
2023/12/23 09:27:57;;;;;;;12.60;5.20;;;;;;;3.59;100.00;98301.55;105795;1257;72279;-77
2023/12/23 09:30:24;;;;;;;11.00;5.10;;;;;;;3.59;100.00;98304.02;106350;1257;60896;-77
2023/12/23 09:32:52;;;;;;;12.90;6.00;;;;;;;3.57;100.00;98301.89;106055;1251;60470;-75
2023/12/23 09:46:51;;;;;;;15.40;6.80;;;;;;;3.69;100.00;98293.42;106379;1282;600125;-76
2023/12/23 09:49:19;;;;;;;13.70;7.50;;;;;;;3.71;100.00;98295.20;108251;1263;59584;-77
2023/12/23 09:51:47;;;;;;;13.80;7.00;;;;;;;3.75;100.00;98293.70;108550;1263;58847;-77
2023/12/23 09:54:16;;;;;;;11.40;5.80;;;;;;;3.81;100.00;98294.15;107164;1265;71230;-78
2023/12/23 09:56:44;;;;;;;12.90;6.50;;;;;;;3.88;100.00;98293.87;105632;1254;62541;-80
2023/12/23 09:59:11;;;;;;;16.10;8.30;;;;;;;3.92;100.00;98295.63;105678;1257;71226;-78
2023/12/23 10:01:39;;;;;;;13.50;6.80;;;;;;;3.98;100.00;98300.91;105467;1256;189947;-77
2023/12/23 10:04:06;;;;;;;10.90;5.40;;;;;;;4.05;100.00;98301.33;105627;1253;59931;-78
2023/12/23 10:06:33;;;;;;;14.00;6.00;;;;;;;4.09;100.00;98304.97;105804;1253;74578;-77
2023/12/23 10:09:01;;;;;;;10.30;6.10;;;;;;;4.13;100.00;98304.21;105718;1257;63725;-77
2023/12/23 10:11:30;;;;;;;10.90;6.10;;;;;;;4.15;100.00;98301.80;105635;1253;72883;-77
2023/12/23 10:13:58;;;;;;;12.50;5.70;;;;;;;4.14;100.00;98304.09;105633;1253;63134;-79
2023/12/23 10:16:26;;;;;;;10.90;6.00;;;;;;;4.15;100.00;98307.65;105930;1253;59567;-77
2023/12/23 10:18:55;;;;;;;15.60;6.80;;;;;;;4.18;100.00;98300.05;105986;1254;73106;-77
2023/12/23 10:21:22;;;;;;;8.30;5.10;;;;;;;4.22;100.00;98298.36;105891;1254;62156;-78
2023/12/23 10:23:52;;;;;;;11.80;5.50;;;;;;;4.29;100.00;98300.50;105986;1253;72896;-78
2023/12/23 10:26:19;;;;;;;14.80;5.40;;;;;;;4.32;100.00;98296.12;105944;1253;59876;-79
2023/12/23 10:28:48;;;;;;;10.10;5.40;;;;;;;4.35;100.00;98299.81;106023;1257;59641;-77
2023/12/23 10:31:17;;;;;;;8.60;6.00;;;;;;;4.40;100.00;98298.14;105823;1253;73172;-78
2023/12/23 10:33:46;;;;;;;9.10;6.10;;;;;;;4.46;100.00;98296.81;105635;1254;63789;-79
2023/12/23 10:36:15;;;;;;;9.20;4.30;;;;;;;4.52;100.00;98295.36;105593;1254;71903;-77
2023/12/23 10:38:46;;;;;;;9.60;4.80;;;;;;;4.55;100.00;98295.83;105919;1254;59738;-76
2023/12/23 10:41:38;;;;;;;12.10;4.20;;;;;;;4.58;100.00;98299.73;105798;1254;59727;-76
2023/12/23 10:44:06;;;;;;;8.70;5.90;;;;;;;4.61;100.00;98296.28;105712;1253;72563;-76
2023/12/23 10:46:33;;;;;;;10.40;5.30;;;;;;;4.65;100.00;98299.44;105655;1254;62862;-78
2023/12/23 10:49:02;;;;;;;7.40;3.40;;;;;;;4.69;100.00;98294.11;105600;1253;71566;-77
2023/12/23 10:51:31;;;;;;;6.90;2.90;;;;;;;4.73;100.00;98294.01;105748;1253;59959;-77
2023/12/23 10:53:58;;;;;;;9.80;5.30;;;;;;;4.73;100.00;98295.36;105882;1254;59966;-77
2023/12/23 10:56:26;;;;;;;12.80;3.90;;;;;;;4.74;100.00;98292.52;105817;1252;72006;-77
2023/12/23 10:58:54;;;;;;;11.10;3.20;;;;;;;4.75;100.00;98292.98;105791;1252;62534;-77
2023/12/23 11:01:22;;;;;;;7.30;3.70;;;;;;;4.78;100.00;98293.81;105825;1255;71988;-77
2023/12/23 11:03:54;;;;;;;4.00;2.40;;;;;;;4.80;100.00;98289.88;105753;1253;59945;-78
2023/12/23 11:06:22;;;;;;;9.30;3.60;;;;;;;4.83;100.00;98288.45;105731;1257;59653;-78
2023/12/23 11:08:50;;;;;;;8.40;4.00;;;;;;;4.88;100.00;98289.13;105823;1252;73051;-77
2023/12/23 11:11:18;;;;;;;6.30;3.70;;;;;;;4.90;100.00;98293.62;105913;1253;62819;-78
2023/12/23 11:13:46;;;;;;;5.70;3.50;;;;;;;4.91;100.00;98290.41;105589;1255;72697;-78
2023/12/23 11:16:17;;;;;;;9.00;4.80;;;;;;;4.93;100.00;98287.31;105674;1256;60906;-77
2023/12/23 11:18:44;;;;;;;6.70;3.50;;;;;;;4.93;100.00;98285.05;109532;1252;59494;-77
2023/12/23 11:21:19;;;;;;;10.60;3.10;;;;;;;4.94;100.00;98292.49;109501;1253;71832;-77
2023/12/23 11:26:52;;;;;;;12.50;3.80;;;;;;;4.91;100.00;98303.55;105060;1289;600860;-77
2023/12/23 11:29:21;;;;;;;8.00;3.30;;;;;;;4.85;100.00;98308.20;105081;1267;60729;-77